Sider Martina C — 9HA4482 — position and weather

sailwx.info

Track history (hours):
 
Tides and Currents Weather Stations Pressure Air Temp Water Temp Dewpoint Dewpoint Depression Visibility Wind Speed Wind Dir Waves Ship Positions

Sider Martina C

Last reported at 2018-May-16 07:00 UTC. Time now 2018-Jun-24 01:14 UTC.
Position N 43°01' E 010°24'.
Warning: this ship's position is 38 days out of date.

Length 108 m; draft 6.2 m.

Type: Cargo ship. MMSI: 248028000.

Date/timePositionNaut miles runAvg speedWind from/ knotsBaromVisibWave heightAir tempDewpointWater temp
2018-May-16 07:00N 43°01' E 010°24'19711.8
2018-May-15 14:21N 40°48' E 013°39'410.4
2018-May-15 13:55N 40°44' E 013°42'410.5
2018-May-15 13:30N 40°41' E 013°45'510.3
2018-May-15 13:00N 40°36' E 013°49'510.1
2018-May-15 12:30N 40°32' E 013°53'13510.8
2018-May-15 00:00N 38°39' E 015°28'610.0
2018-May-14 23:26N 38°34' E 015°31'4 9.8
2018-May-14 23:00N 38°30' E 015°34'5 9.9
2018-May-14 22:29N 38°26' E 015°36'5 9.9
2018-May-14 21:59N 38°21' E 015°39'5 9.5
2018-May-14 21:29N 38°17' E 015°42'4 7.9
2018-May-14 21:00N 38°14' E 015°38'4 7.6
2018-May-14 20:30N 38°11' E 015°37'5 9.7
2018-May-14 20:00N 38°06' E 015°36'4 9.1
2018-May-14 19:30N 38°01' E 015°35'11 9.1
2018-May-14 18:17N 37°50' E 015°33'3 9.0
2018-May-14 18:00N 37°48' E 015°32'4 8.7
2018-May-14 17:29N 37°44' E 015°30'6 8.1
2018-May-14 16:46N 37°38' E 015°28'5 8.5
2018-May-14 16:11N 37°34' E 015°26'3 8.7
2018-May-14 15:54N 37°31' E 015°25'  
2018-May-11 11:37N 37°30' E 015°22'210.5
2018-May-11 11:26N 37°31' E 015°23'510.4
2018-May-11 11:00N 37°36' E 015°25'610.8
2018-May-11 10:27N 37°41' E 015°27'510.7
2018-May-11 10:00N 37°46' E 015°29'611.0
2018-May-11 09:27N 37°52' E 015°31'710.8
2018-May-11 08:48N 37°58' E 015°33'310.9
2018-May-11 08:29N 38°02' E 015°34'612.2
2018-May-11 08:00N 38°08' E 015°35'712.8
2018-May-11 07:27N 38°15' E 015°37'5 9.7
2018-May-11 06:59N 38°18' E 015°40'811.5
2018-May-11 06:15N 38°26' E 015°35'512.1
2018-May-11 05:51N 38°30' E 015°32'412.1
2018-May-11 05:29N 38°34' E 015°30'13411.4
2018-May-10 17:45N 40°26' E 013°54'411.9
2018-May-10 17:26N 40°29' E 013°51'511.8
2018-May-10 17:00N 40°33' E 013°47'811.8
2018-May-10 16:20N 40°40' E 013°42'512.1
2018-May-10 15:57N 40°44' E 013°38'20611.3
2018-May-09 21:39N 43°07' E 010°20'211.3
2018-May-09 21:30N 43°09' E 010°19'611.4
2018-May-09 21:00N 43°15' E 010°17'611.4
2018-May-09 20:30N 43°20' E 010°14'611.6
2018-May-09 20:00N 43°26' E 010°12'510.3
2018-May-09 19:30N 43°31' E 010°13'4 8.3
2018-May-09 19:00N 43°33' E 010°17'0 0.8
2018-May-09 18:30N 43°33' E 010°18'0 0.0
2018-May-09 18:00N 43°33' E 010°18'0 0.0
2018-May-09 17:18N 43°33' E 010°18'0 0.0
2018-May-09 17:00N 43°33' E 010°18'0 0.0
2018-May-09 16:30N 43°33' E 010°18'0 0.0
2018-May-09 16:00N 43°33' E 010°18'0 0.0
2018-May-09 15:30N 43°33' E 010°18'0 0.0
2018-May-09 15:00N 43°33' E 010°18'0 0.0
2018-May-09 14:30N 43°33' E 010°18'0 0.0
2018-May-09 13:57N 43°33' E 010°18'0 0.0
2018-May-09 13:30N 43°33' E 010°18'0 0.0
2018-May-09 13:00N 43°33' E 010°18'0 0.0
2018-May-09 12:30N 43°33' E 010°18'0 0.0
2018-May-09 12:00N 43°33' E 010°18'0 0.0
2018-May-09 11:30N 43°33' E 010°18'0 0.0
2018-May-09 10:57N 43°33' E 010°18'  
Track history (hours):
 
Tides and Currents Weather Stations Pressure Air Temp Water Temp Dewpoint Dewpoint Depression Visibility Wind Speed Wind Dir Waves Ship Positions

Sider Martina C

Last reported at 2018-May-16 07:00 UTC. Time now 2018-Jun-24 01:14 UTC.
Position N 43°01' E 010°24'.
Warning: this ship's position is 38 days out of date.

Length 108 m; draft 6.2 m.

Type: Cargo ship. MMSI: 248028000.

Date/timePositionNaut miles runAvg speedWind from/ knotsBaromVisibWave heightAir tempDewpointWater temp
2018-May-16 07:00N 43°01' E 010°24'19711.8
2018-May-15 14:21N 40°48' E 013°39'410.4
2018-May-15 13:55N 40°44' E 013°42'410.5
2018-May-15 13:30N 40°41' E 013°45'510.3
2018-May-15 13:00N 40°36' E 013°49'510.1
2018-May-15 12:30N 40°32' E 013°53'13510.8
2018-May-15 00:00N 38°39' E 015°28'610.0
2018-May-14 23:26N 38°34' E 015°31'4 9.8
2018-May-14 23:00N 38°30' E 015°34'5 9.9
2018-May-14 22:29N 38°26' E 015°36'5 9.9
2018-May-14 21:59N 38°21' E 015°39'5 9.5
2018-May-14 21:29N 38°17' E 015°42'4 7.9
2018-May-14 21:00N 38°14' E 015°38'4 7.6
2018-May-14 20:30N 38°11' E 015°37'5 9.7
2018-May-14 20:00N 38°06' E 015°36'4 9.1
2018-May-14 19:30N 38°01' E 015°35'11 9.1
2018-May-14 18:17N 37°50' E 015°33'3 9.0
2018-May-14 18:00N 37°48' E 015°32'4 8.7
2018-May-14 17:29N 37°44' E 015°30'6 8.1
2018-May-14 16:46N 37°38' E 015°28'5 8.5
2018-May-14 16:11N 37°34' E 015°26'3 8.7
2018-May-14 15:54N 37°31' E 015°25'  
2018-May-11 11:37N 37°30' E 015°22'210.5
2018-May-11 11:26N 37°31' E 015°23'510.4
2018-May-11 11:00N 37°36' E 015°25'610.8
2018-May-11 10:27N 37°41' E 015°27'510.7
2018-May-11 10:00N 37°46' E 015°29'611.0
2018-May-11 09:27N 37°52' E 015°31'710.8
2018-May-11 08:48N 37°58' E 015°33'310.9
2018-May-11 08:29N 38°02' E 015°34'612.2
2018-May-11 08:00N 38°08' E 015°35'712.8
2018-May-11 07:27N 38°15' E 015°37'5 9.7
2018-May-11 06:59N 38°18' E 015°40'811.5
2018-May-11 06:15N 38°26' E 015°35'512.1
2018-May-11 05:51N 38°30' E 015°32'412.1
2018-May-11 05:29N 38°34' E 015°30'13411.4
2018-May-10 17:45N 40°26' E 013°54'411.9
2018-May-10 17:26N 40°29' E 013°51'511.8
2018-May-10 17:00N 40°33' E 013°47'811.8
2018-May-10 16:20N 40°40' E 013°42'512.1
2018-May-10 15:57N 40°44' E 013°38'20611.3
2018-May-09 21:39N 43°07' E 010°20'211.3
2018-May-09 21:30N 43°09' E 010°19'611.4
2018-May-09 21:00N 43°15' E 010°17'611.4
2018-May-09 20:30N 43°20' E 010°14'611.6
2018-May-09 20:00N 43°26' E 010°12'510.3
2018-May-09 19:30N 43°31' E 010°13'4 8.3
2018-May-09 19:00N 43°33' E 010°17'0 0.8
2018-May-09 18:30N 43°33' E 010°18'0 0.0
2018-May-09 18:00N 43°33' E 010°18'0 0.0
2018-May-09 17:18N 43°33' E 010°18'0 0.0
2018-May-09 17:00N 43°33' E 010°18'0 0.0
2018-May-09 16:30N 43°33' E 010°18'0 0.0
2018-May-09 16:00N 43°33' E 010°18'0 0.0
2018-May-09 15:30N 43°33' E 010°18'0 0.0
2018-May-09 15:00N 43°33' E 010°18'0 0.0
2018-May-09 14:30N 43°33' E 010°18'0 0.0
2018-May-09 13:57N 43°33' E 010°18'0 0.0
2018-May-09 13:30N 43°33' E 010°18'0 0.0
2018-May-09 13:00N 43°33' E 010°18'0 0.0
2018-May-09 12:30N 43°33' E 010°18'0 0.0
2018-May-09 12:00N 43°33' E 010°18'0 0.0
2018-May-09 11:30N 43°33' E 010°18'0 0.0
2018-May-09 10:57N 43°33' E 010°18'  

Dump ship's entire track history